Aviation Digital Data Service (ADDS)

Output produced by METARs form (1817 UTC 24 June 2018)
found at http://aviationweather.gov/adds/metars/
 
KJAN 241754Z 28005KT 10SM SCT041 BKN055 31/22 A3003 RMK AO2 SLP163 T03060222 10317 20244 55001